ADDS METAR Data INFO
IDs: Format: Raw Decoded Include TAF

Data at: 0209 UTC 14 Dec 2017

KEWK 140156Z AUTO 34008KT 10SM CLR 04/M06 A2995 RMK AO2 SLP146 T00441056
KEWK 140056Z AUTO 34008KT 9SM CLR 06/M06 A2992 RMK AO2 SLP137 T00611056
KEWK 132356Z AUTO 33003KT 10SM CLR 08/M05 A2991 RMK AO2 SLP131 T00831050 10161 20083 53013
KEWK 132256Z AUTO 35014KT 10SM CLR 12/M05 A2988 RMK AO2 SLP120 T01221050
KEWK 132156Z AUTO 34015KT 10SM CLR 15/M05 A2987 RMK AO2 SLP115 T01501050 TSNO
KEWK 132056Z AUTO 32019G23KT 10SM CLR 16/M05 A2986 RMK AO2 PK WND 32026/2011 SLP113 T01561050 55006
KEWK 131956Z AUTO 33023KT 10SM CLR 16/M05 A2986 RMK AO2 PK WND 33027/1928 SLP112 T01611050
KEWK 131856Z AUTO 33020G26KT 10SM CLR 16/M06 A2987 RMK AO2 PK WND 32032/1822 SLP113 T01611056
KEWK 131756Z AUTO 33025G30KT 10SM CLR 16/M06 A2988 RMK AO2 PK WND 33036/1737 SLP120 T01561056 10156 20022 58001
KEWK 131656Z AUTO 33021G26KT 10SM CLR 13/M06 A2991 RMK AO2 PK WND 33026/1655 SLP130 T01281056
KEWK 131556Z AUTO 32014KT 10SM CLR 09/M06 A2990 RMK AO2 SLP128 T00941061
KEWK 131456Z AUTO 32014KT 10SM CLR 07/M07 A2989 RMK AO2 SLP125 T00671067 51020
KEWK 131356Z AUTO 31010KT 10SM CLR 03/M07 A2987 RMK AO2 SLP120 T00331067
KEWK 131256Z AUTO 30010KT 10SM CLR 03/M07 A2985 RMK AO2 SLP112 T00281067
KEWK 131156Z AUTO 29010KT 10SM CLR 02/M07 A2982 RMK AO2 SLP105 7//// T00221067 10028 20011 55009 FZRANO
KEWK 131056Z AUTO 25013KT 10SM CLR 02/M06 A2980 RMK AO2 SLP095 T00221056 FZRANO
KEWK 130956Z AUTO 22011KT 10SM CLR 01/M04 A2982 RMK AO2 SLP102 T00111044 FZRANO
KEWK 130856Z AUTO 21010KT 10SM CLR 02/M04 A2985 RMK AO2 SLP112 T00171044 56027 FZRANO
KEWK 130756Z AUTO 21011KT 10SM CLR 02/M04 A2987 RMK AO2 SLP119 T00221039 FZRANO
KEWK 130656Z AUTO 20009KT 10SM CLR 02/M04 A2990 RMK AO2 SLP130 T00221039 FZRANO
KEWK 130556Z AUTO 20009KT 10SM CLR 02/M03 A2994 RMK AO2 SLP142 T00221033 10061 20022 56032 FZRANO
KEWK 130456Z AUTO 20011KT 10SM CLR 03/M03 A2997 RMK AO2 SLP154 T00331028 401001050
KEWK 130356Z AUTO 20012KT 10SM CLR 04/M03 A3000 RMK AO2 SLP166 T00391028
KEWK 130256Z AUTO 20011KT 10SM CLR 03/M03 A3003 RMK AO2 SLP180 T00281033 58025
KEWK 130156Z AUTO 20010KT 10SM CLR 05/M03 A3007 RMK AO2 SLP192 T00501028
KEWK 130056Z AUTO 20009KT 10SM CLR 04/M04 A3009 RMK AO2 SLP199 T00441044
KEWK 122356Z AUTO 21006KT 10SM CLR 06/M04 A3011 RMK AO2 SLP207 T00561044 10100 20056 56028
KEWK 122256Z AUTO 23008KT 10SM CLR 08/M04 A3014 RMK AO2 SLP214 T00831039
KEWK 122156Z AUTO 23011KT 10SM CLR 10/M03 A3017 RMK AO2 SLP222 T01001033
KEWK 122056Z AUTO 25010KT 10SM CLR 09/M03 A3020 RMK AO2 SLP233 T00941028 56042
KEWK 121956Z AUTO 25012KT 10SM CLR 08/M02 A3024 RMK AO2 SLP244 T00831022
KEWK 121856Z AUTO 26010KT 10SM CLR 07/M02 A3028 RMK AO2 SLP260 T00721022
KEWK 121756Z AUTO 28006KT 10SM CLR 06/M02 A3033 RMK AO2 SLP276 6//// T00611022 10061 21050 58018 TSNO
KEWK 121656Z AUTO 28008KT 10SM CLR 04/M03 A3038 RMK AO2 SLP295 T00391033
KEWK 121556Z AUTO 00000KT 10SM CLR 02/M04 A3039 RMK AO2 SLP299 T00171039 FZRANO
KEWK 121456Z AUTO 32004KT 10SM CLR M01/M04 A3039 RMK AO2 SLP299 6//// T10111039 50004 FZRANO PNO $